Time;durP1;ratioP1;P1;durP2;ratioP2;P2;SDS_P1;SDS_P2;PMS_P1;PMS_P2;Temp;Humidity;BMP_temperature;BMP_pressure;BME280_temperature;BME280_humidity;BME280_pressure;Samples;Min_cycle;Max_cycle;Signal;HPM_P1;HPM_P2
2022/11/09 00:01:42;;;;;;;6.93;2.28;;;11.70;99.90;;;;;;4993256;28;20056;-78
2022/11/09 00:04:09;;;;;;;3.63;2.10;;;11.80;99.90;;;;;;4972715;28;20034;-77
2022/11/09 00:06:35;;;;;;;5.65;2.70;;;11.80;99.90;;;;;;4993226;28;20030;-79
2022/11/09 00:09:03;;;;;;;8.60;3.40;;;11.80;99.90;;;;;;4975398;28;20120;-77
2022/11/09 00:11:29;;;;;;;4.85;2.65;;;11.80;99.90;;;;;;4992792;28;20038;-78
2022/11/09 00:13:54;;;;;;;4.10;2.30;;;11.80;99.90;;;;;;4991641;28;20121;-78
2022/11/09 00:16:21;;;;;;;5.88;2.83;;;11.90;99.90;;;;;;4993064;28;20052;-77
2022/11/09 00:18:47;;;;;;;7.25;2.60;;;11.90;99.90;;;;;;4992363;28;20044;-77
2022/11/09 00:21:16;;;;;;;5.47;2.15;;;11.90;99.90;;;;;;4994145;28;20038;-77
2022/11/09 00:23:41;;;;;;;5.63;2.05;;;11.90;99.90;;;;;;4974945;28;20403;-77
2022/11/09 00:26:10;;;;;;;5.32;2.22;;;11.80;99.90;;;;;;4994476;28;20034;-78
2022/11/09 00:28:35;;;;;;;4.90;2.10;;;11.80;99.90;;;;;;4992946;28;20381;-78
2022/11/09 00:31:02;;;;;;;4.38;2.13;;;11.80;99.90;;;;;;4989671;28;20030;-78
2022/11/09 00:33:28;;;;;;;4.85;2.00;;;11.80;99.90;;;;;;4991183;28;20132;-77
2022/11/09 00:35:54;;;;;;;5.15;2.05;;;11.80;99.90;;;;;;4993080;28;20355;-77
2022/11/09 00:38:20;;;;;;;6.85;2.60;;;11.80;99.90;;;;;;4990837;28;20096;-77
2022/11/09 00:40:45;;;;;;;5.60;2.80;;;11.80;99.90;;;;;;4988277;28;20507;-77
2022/11/09 00:43:11;;;;;;;7.20;2.80;;;11.80;99.90;;;;;;4991767;28;20103;-78
2022/11/09 00:45:37;;;;;;;5.65;2.50;;;11.90;99.90;;;;;;4993908;28;20045;-77
2022/11/09 00:48:03;;;;;;;5.13;2.47;;;11.90;99.90;;;;;;4992776;28;20045;-78
2022/11/09 00:50:29;;;;;;;5.70;2.40;;;12.00;99.90;;;;;;4992121;28;20171;-77
2022/11/09 00:52:54;;;;;;;5.70;2.35;;;11.90;99.90;;;;;;5009351;28;20133;-77
2022/11/09 00:55:20;;;;;;;4.68;2.30;;;11.90;99.90;;;;;;4989905;28;20045;-77
2022/11/09 00:57:49;;;;;;;5.82;2.38;;;11.90;99.90;;;;;;4991995;28;20041;-78
2022/11/09 01:00:24;;;;;;;6.40;2.50;;;11.90;99.90;;;;;;4992365;28;20114;-78
2022/11/09 01:02:49;;;;;;;5.35;2.15;;;11.80;99.90;;;;;;4992656;28;20099;-77
2022/11/09 01:05:15;;;;;;;5.90;2.40;;;11.80;99.90;;;;;;4991974;28;20037;-78
2022/11/09 01:07:41;;;;;;;6.00;2.35;;;11.80;99.90;;;;;;4991296;28;20034;-77
2022/11/09 01:10:07;;;;;;;7.80;3.13;;;11.80;99.90;;;;;;4991635;28;20376;-78
2022/11/09 01:12:33;;;;;;;7.15;2.42;;;11.80;99.90;;;;;;4992981;28;20041;-78
2022/11/09 01:14:58;;;;;;;5.25;2.50;;;11.80;99.90;;;;;;4992476;28;20041;-77
2022/11/09 01:17:24;;;;;;;6.43;2.67;;;11.80;99.90;;;;;;5007298;28;20512;-78
2022/11/09 01:19:49;;;;;;;11.07;2.60;;;11.80;99.90;;;;;;4991390;28;20045;-77
2022/11/09 01:22:16;;;;;;;5.35;2.40;;;11.80;99.90;;;;;;4992560;28;20053;-78
2022/11/09 01:24:41;;;;;;;5.95;2.65;;;11.80;99.90;;;;;;4992787;28;20191;-78
2022/11/09 01:27:07;;;;;;;6.13;2.28;;;11.80;99.90;;;;;;4992328;28;20500;-78
2022/11/09 01:29:32;;;;;;;6.40;2.42;;;11.80;99.90;;;;;;4993273;28;20045;-77
2022/11/09 01:31:58;;;;;;;8.65;2.30;;;11.90;99.90;;;;;;4991384;28;20038;-77
2022/11/09 01:34:26;;;;;;;8.30;2.75;;;11.90;99.90;;;;;;4990573;28;20077;-78
2022/11/09 01:36:51;;;;;;;6.10;2.40;;;11.90;99.90;;;;;;4987443;28;20042;-78
2022/11/09 01:39:18;;;;;;;7.45;2.60;;;11.90;99.90;;;;;;5009701;28;20496;-77
2022/11/09 01:41:44;;;;;;;7.50;2.55;;;11.90;99.90;;;;;;4991646;28;20508;-78
2022/11/09 01:44:15;;;;;;;6.03;2.50;;;12.00;99.90;;;;;;4992646;28;20541;-78
2022/11/09 01:46:44;;;;;;;9.45;2.33;;;12.00;99.90;;;;;;4993322;28;20038;-78
2022/11/09 01:49:32;;;;;;;6.38;2.40;;;12.00;99.90;;;;;;4989922;28;20041;-77
2022/11/09 01:52:06;;;;;;;9.10;2.47;;;12.10;99.90;;;;;;4976123;28;20045;-77
2022/11/09 01:54:37;;;;;;;6.93;2.15;;;12.10;99.90;;;;;;4992091;28;20596;-77
2022/11/09 01:57:09;;;;;;;7.40;2.40;;;12.10;99.90;;;;;;4991473;28;20172;-78
2022/11/09 01:59:40;;;;;;;8.45;2.67;;;12.20;99.90;;;;;;4990153;28;20041;-79
2022/11/09 02:02:06;;;;;;;7.25;2.10;;;12.20;99.90;;;;;;4990267;28;20053;-78
2022/11/09 02:04:38;;;;;;;5.63;2.30;;;12.20;99.90;;;;;;4976605;28;20034;-78
2022/11/09 02:07:04;;;;;;;8.73;2.60;;;12.20;99.90;;;;;;4992231;28;20045;-77
2022/11/09 02:10:01;;;;;;;10.70;2.97;;;12.20;99.90;;;;;;4990826;28;20124;-77
2022/11/09 02:12:30;;;;;;;5.97;2.40;;;12.20;99.90;;;;;;4983447;28;20526;-77
2022/11/09 02:14:56;;;;;;;10.20;2.45;;;12.10;99.90;;;;;;4974211;28;20042;-78
2022/11/09 02:17:22;;;;;;;8.98;2.72;;;12.10;99.90;;;;;;4991125;28;20045;-77
2022/11/09 02:19:47;;;;;;;8.55;2.97;;;12.00;99.90;;;;;;4992640;28;20049;-78
2022/11/09 02:22:14;;;;;;;8.38;2.72;;;12.00;99.90;;;;;;4991949;28;20042;-78
2022/11/09 02:24:39;;;;;;;6.78;2.13;;;12.00;99.90;;;;;;4991995;28;20030;-77
2022/11/09 02:27:06;;;;;;;9.20;2.55;;;12.00;99.90;;;;;;4991527;28;20568;-78
2022/11/09 02:29:36;;;;;;;6.10;2.15;;;11.90;99.90;;;;;;4987509;28;20048;-77
2022/11/09 02:32:07;;;;;;;9.35;2.17;;;11.90;99.90;;;;;;4995968;28;20069;-77
2022/11/09 02:34:33;;;;;;;7.07;2.83;;;11.90;99.90;;;;;;5010861;28;20113;-77
2022/11/09 02:36:58;;;;;;;7.32;2.20;;;11.80;99.90;;;;;;4995583;28;20117;-78
2022/11/09 02:39:26;;;;;;;6.95;2.15;;;11.80;99.90;;;;;;4994963;28;20139;-77
2022/11/09 02:42:03;;;;;;;7.13;2.00;;;11.80;99.90;;;;;;4998033;28;20065;-77
2022/11/09 02:44:33;;;;;;;9.02;2.10;;;11.80;99.90;;;;;;4996027;28;20044;-77
2022/11/09 02:46:58;;;;;;;8.55;2.55;;;11.70;99.90;;;;;;4979523;28;20034;-78
2022/11/09 02:49:24;;;;;;;6.68;2.22;;;11.70;99.90;;;;;;4995091;28;20045;-78
2022/11/09 02:51:49;;;;;;;6.75;2.47;;;11.60;99.90;;;;;;4977802;28;20523;-77
2022/11/09 02:54:15;;;;;;;9.10;2.75;;;11.60;99.90;;;;;;4994339;28;20049;-77
2022/11/09 02:56:40;;;;;;;7.70;2.50;;;11.60;99.90;;;;;;4994683;28;20129;-77
2022/11/09 02:59:06;;;;;;;9.68;2.40;;;11.60;99.90;;;;;;4995079;28;20124;-78
2022/11/09 03:01:31;;;;;;;8.80;2.65;;;11.60;99.90;;;;;;4993549;28;20116;-77
2022/11/09 03:03:57;;;;;;;11.68;3.10;;;11.60;99.90;;;;;;4994950;28;20101;-77
2022/11/09 03:06:33;;;;;;;6.97;2.40;;;11.60;99.90;;;;;;4994892;28;20049;-77
2022/11/09 03:09:03;;;;;;;8.13;2.30;;;11.60;99.90;;;;;;4995527;28;20037;-77
2022/11/09 03:11:29;;;;;;;11.15;2.58;;;11.60;99.90;;;;;;4993992;28;20038;-77
2022/11/09 03:13:54;;;;;;;9.63;2.00;;;11.60;99.90;;;;;;4993988;28;20407;-77
2022/11/09 03:16:20;;;;;;;9.45;2.15;;;11.60;99.90;;;;;;4995662;28;20037;-77
2022/11/09 03:18:45;;;;;;;11.95;2.60;;;11.60;99.90;;;;;;4991966;28;20030;-77
2022/11/09 03:21:11;;;;;;;5.88;2.13;;;11.60;99.90;;;;;;4993646;28;20025;-77
2022/11/09 03:23:36;;;;;;;8.15;2.50;;;11.60;99.90;;;;;;4994463;28;20045;-77
2022/11/09 03:26:02;;;;;;;10.00;2.20;;;11.60;99.90;;;;;;4994659;28;20036;-77
2022/11/09 03:28:28;;;;;;;8.73;2.35;;;11.60;99.90;;;;;;4994259;28;20041;-78
2022/11/09 03:30:53;;;;;;;5.63;2.10;;;11.60;99.90;;;;;;4994532;28;20041;-77
2022/11/09 03:33:19;;;;;;;7.63;2.10;;;11.50;99.90;;;;;;4994451;28;20451;-77
2022/11/09 03:35:45;;;;;;;7.50;2.50;;;11.50;99.90;;;;;;4979447;28;20048;-77
2022/11/09 03:38:10;;;;;;;5.82;1.80;;;11.50;99.90;;;;;;4993969;28;20165;-77
2022/11/09 03:40:36;;;;;;;9.18;2.55;;;11.50;99.90;;;;;;5012792;28;20537;-77
2022/11/09 03:43:01;;;;;;;8.95;2.47;;;11.50;99.90;;;;;;4994640;28;20450;-78
2022/11/09 03:45:27;;;;;;;9.55;2.05;;;11.50;99.90;;;;;;4994928;28;20050;-77
2022/11/09 03:48:01;;;;;;;8.07;2.22;;;11.60;99.90;;;;;;4977921;28;20072;-77
2022/11/09 03:50:29;;;;;;;8.30;2.00;;;11.60;99.90;;;;;;4994667;28;20042;-78
2022/11/09 03:52:55;;;;;;;8.88;1.92;;;11.50;99.90;;;;;;4992303;28;20050;-78
2022/11/09 03:55:20;;;;;;;10.68;2.38;;;11.50;99.90;;;;;;4994215;28;20128;-77
2022/11/09 03:57:46;;;;;;;8.05;2.20;;;11.50;99.90;;;;;;4993604;28;20133;-77
2022/11/09 04:00:15;;;;;;;8.73;2.20;;;11.50;99.90;;;;;;4992407;28;20030;-77
2022/11/09 04:02:41;;;;;;;5.90;1.98;;;11.50;99.90;;;;;;4993727;28;20038;-77
2022/11/09 04:05:07;;;;;;;7.43;2.05;;;11.50;99.90;;;;;;4993995;28;20435;-78
2022/11/09 04:07:32;;;;;;;8.25;2.17;;;11.60;99.90;;;;;;4995435;28;20423;-78
2022/11/09 04:09:58;;;;;;;8.45;2.10;;;11.50;99.90;;;;;;4993669;28;20072;-78
2022/11/09 04:12:24;;;;;;;8.75;2.47;;;11.50;99.90;;;;;;4993952;28;20042;-77
2022/11/09 04:14:49;;;;;;;4.85;2.13;;;11.50;99.90;;;;;;4995205;28;20038;-77
2022/11/09 04:17:15;;;;;;;7.10;1.80;;;11.50;99.90;;;;;;4993924;28;20103;-77
2022/11/09 04:19:41;;;;;;;7.53;2.03;;;11.40;99.90;;;;;;4993231;28;20038;-77
2022/11/09 04:22:07;;;;;;;7.88;1.90;;;11.40;99.90;;;;;;4992096;28;20037;-77
2022/11/09 04:24:32;;;;;;;7.60;1.77;;;11.40;99.90;;;;;;4990541;28;20463;-77
2022/11/09 04:26:58;;;;;;;8.48;2.05;;;11.40;99.90;;;;;;4993533;28;20034;-77
2022/11/09 04:29:24;;;;;;;9.02;2.00;;;11.40;99.90;;;;;;4993796;28;20046;-77
2022/11/09 04:31:50;;;;;;;6.60;1.77;;;11.40;99.90;;;;;;4976873;28;20057;-78
2022/11/09 04:34:16;;;;;;;9.43;2.08;;;11.40;99.90;;;;;;4994157;28;20041;-78
2022/11/09 04:36:42;;;;;;;8.48;2.00;;;11.40;99.90;;;;;;4977320;28;20042;-78
2022/11/09 04:39:07;;;;;;;8.43;2.03;;;11.40;99.90;;;;;;4990027;28;20044;-78
2022/11/09 04:41:33;;;;;;;7.22;1.60;;;11.30;99.90;;;;;;5008564;28;20042;-77
2022/11/09 04:43:59;;;;;;;12.23;1.88;;;11.30;99.90;;;;;;4993750;28;20535;-78
2022/11/09 04:46:24;;;;;;;7.22;1.80;;;11.30;99.90;;;;;;4974248;28;20041;-77
2022/11/09 04:48:50;;;;;;;7.15;1.90;;;11.30;99.90;;;;;;4993779;28;20026;-78
2022/11/09 04:51:15;;;;;;;8.20;1.65;;;11.30;99.90;;;;;;5009556;28;20042;-79
2022/11/09 04:53:41;;;;;;;8.65;2.20;;;11.40;99.90;;;;;;4993686;28;20041;-77
2022/11/09 04:56:07;;;;;;;10.65;2.35;;;11.40;99.90;;;;;;4991800;28;20056;-77
2022/11/09 04:58:32;;;;;;;9.27;3.03;;;11.40;99.90;;;;;;4991767;28;20140;-77
2022/11/09 05:01:07;;;;;;;8.65;1.98;;;11.40;99.90;;;;;;4993193;28;20117;-77
2022/11/09 05:03:33;;;;;;;9.20;2.05;;;11.40;99.90;;;;;;4983553;28;20065;-77
2022/11/09 05:05:58;;;;;;;9.10;2.15;;;11.40;99.90;;;;;;4993819;28;20061;-77
2022/11/09 05:08:24;;;;;;;11.70;2.30;;;11.40;99.90;;;;;;4991003;28;20073;-77
2022/11/09 05:10:50;;;;;;;10.00;2.33;;;11.40;99.90;;;;;;4990574;28;20038;-78
2022/11/09 05:13:15;;;;;;;6.97;2.33;;;11.40;99.90;;;;;;4992499;28;20060;-77
2022/11/09 05:15:41;;;;;;;10.20;2.17;;;11.50;99.90;;;;;;4993117;28;20096;-77
2022/11/09 05:18:08;;;;;;;7.43;2.13;;;11.40;99.90;;;;;;4992052;28;20038;-77
2022/11/09 05:20:35;;;;;;;7.75;2.03;;;11.50;99.90;;;;;;4989637;28;20076;-77
2022/11/09 05:25:45;;;;;;;5.90;1.88;;;11.50;99.90;;;;;;4986075;28;20103;-77
2022/11/09 05:28:11;;;;;;;9.82;2.17;;;11.40;99.90;;;;;;4992446;28;20487;-77
2022/11/09 05:30:37;;;;;;;9.40;2.33;;;11.40;99.90;;;;;;4992137;28;20038;-76
2022/11/09 05:33:03;;;;;;;8.10;2.50;;;11.40;99.90;;;;;;4993110;28;20042;-78
2022/11/09 05:35:29;;;;;;;6.38;2.20;;;11.40;99.90;;;;;;4992587;28;20030;-77
2022/11/09 05:37:54;;;;;;;9.27;2.72;;;11.40;99.90;;;;;;4976482;28;20115;-77
2022/11/09 05:40:20;;;;;;;7.72;2.35;;;11.50;99.90;;;;;;4987689;28;20053;-77
2022/11/09 05:42:46;;;;;;;10.73;2.03;;;11.40;99.90;;;;;;4992604;28;20049;-77
2022/11/09 05:45:14;;;;;;;8.27;2.38;;;11.50;99.90;;;;;;4993266;28;20048;-77
2022/11/09 05:47:41;;;;;;;8.85;2.08;;;11.50;99.90;;;;;;4993580;28;20454;-77
2022/11/09 05:50:10;;;;;;;6.53;2.22;;;11.50;99.90;;;;;;4991519;28;20105;-77
2022/11/09 05:52:35;;;;;;;6.97;2.17;;;11.50;99.90;;;;;;4992472;28;20124;-77
2022/11/09 05:55:02;;;;;;;7.68;1.95;;;11.50;99.90;;;;;;4993395;28;20077;-77
2022/11/09 05:57:28;;;;;;;8.10;2.80;;;11.50;99.90;;;;;;4988969;28;20044;-79
2022/11/09 05:59:53;;;;;;;8.60;2.30;;;11.50;99.90;;;;;;4991778;28;20499;-78
2022/11/09 06:02:19;;;;;;;8.55;2.45;;;11.50;99.90;;;;;;4993389;28;20125;-77
2022/11/09 06:04:44;;;;;;;9.48;2.03;;;11.50;99.90;;;;;;4995127;28;20026;-77
2022/11/09 06:07:10;;;;;;;7.07;2.35;;;11.50;99.90;;;;;;4996072;28;20036;-77
2022/11/09 06:09:35;;;;;;;9.35;2.28;;;11.50;99.90;;;;;;4995652;28;20065;-77
2022/11/09 06:12:01;;;;;;;10.50;2.20;;;11.40;99.90;;;;;;4996133;28;20130;-77
2022/11/09 06:14:26;;;;;;;7.65;2.13;;;11.40;99.90;;;;;;4995955;28;20056;-77
2022/11/09 06:16:52;;;;;;;5.30;2.05;;;11.50;99.90;;;;;;4995742;28;20088;-78
2022/11/09 06:19:17;;;;;;;7.38;1.90;;;11.40;99.90;;;;;;4995682;28;20042;-77
2022/11/09 06:21:43;;;;;;;8.82;2.45;;;11.40;99.90;;;;;;4993481;28;20562;-77
2022/11/09 06:24:09;;;;;;;11.23;2.20;;;11.40;99.90;;;;;;4994880;28;20092;-77
2022/11/09 06:26:35;;;;;;;8.45;2.13;;;11.30;99.90;;;;;;4991486;28;20041;-77
2022/11/09 06:29:01;;;;;;;9.35;2.40;;;11.30;99.90;;;;;;4994259;28;20076;-77
2022/11/09 06:31:27;;;;;;;7.68;1.88;;;11.30;99.90;;;;;;4992786;28;20478;-77
2022/11/09 06:33:52;;;;;;;8.73;2.25;;;11.30;99.90;;;;;;4994802;28;20030;-77
2022/11/09 06:36:18;;;;;;;6.90;2.33;;;11.20;99.90;;;;;;4986382;28;20060;-77
2022/11/09 06:38:46;;;;;;;9.25;1.92;;;11.20;99.90;;;;;;4988982;28;20041;-77
2022/11/09 06:41:12;;;;;;;9.00;2.58;;;11.20;99.90;;;;;;4992736;28;20030;-77
2022/11/09 06:43:38;;;;;;;8.48;2.33;;;11.20;99.90;;;;;;4993212;28;20120;-77
2022/11/09 06:46:04;;;;;;;8.45;1.88;;;11.20;99.90;;;;;;4994561;28;20030;-77
2022/11/09 06:48:30;;;;;;;6.65;2.40;;;11.10;99.90;;;;;;4974454;28;20033;-77
2022/11/09 06:50:59;;;;;;;8.38;2.17;;;11.10;99.90;;;;;;4995834;28;20418;-77
2022/11/09 06:53:28;;;;;;;7.75;1.90;;;11.10;99.90;;;;;;4993145;28;20049;-77
2022/11/09 06:55:57;;;;;;;9.52;2.42;;;11.20;99.90;;;;;;4990565;28;20042;-78
2022/11/09 06:58:23;;;;;;;9.10;2.35;;;11.20;99.90;;;;;;4994190;28;20045;-78
2022/11/09 07:00:49;;;;;;;14.07;2.38;;;11.10;99.90;;;;;;4996128;28;20442;-77
2022/11/09 07:03:15;;;;;;;9.73;2.00;;;11.10;99.90;;;;;;4995828;28;20042;-77
2022/11/09 07:05:41;;;;;;;7.25;2.22;;;11.10;99.90;;;;;;4996162;28;20092;-77
2022/11/09 07:08:08;;;;;;;8.65;2.03;;;11.10;99.90;;;;;;4995403;28;20037;-77
2022/11/09 07:10:33;;;;;;;7.57;2.22;;;11.10;99.90;;;;;;4996028;28;20492;-77
2022/11/09 07:12:59;;;;;;;6.80;1.88;;;11.10;99.90;;;;;;4995399;28;20088;-77
2022/11/09 07:15:24;;;;;;;7.70;2.00;;;11.10;99.90;;;;;;4995788;28;20101;-77
2022/11/09 07:17:50;;;;;;;9.13;2.00;;;11.10;99.90;;;;;;4995649;28;20041;-77
2022/11/09 07:20:16;;;;;;;9.75;2.17;;;11.20;99.90;;;;;;4995487;28;20436;-77
2022/11/09 07:22:41;;;;;;;9.05;2.00;;;11.10;99.90;;;;;;4995602;28;20504;-77
2022/11/09 07:25:10;;;;;;;8.98;2.50;;;11.10;99.90;;;;;;4995500;28;20069;-77
2022/11/09 07:27:36;;;;;;;8.65;1.88;;;11.20;99.90;;;;;;4995292;28;20034;-77
2022/11/09 07:30:01;;;;;;;9.57;1.85;;;11.20;99.90;;;;;;4995438;28;20038;-76
2022/11/09 07:32:27;;;;;;;8.88;1.75;;;11.20;99.90;;;;;;4978799;28;20388;-76
2022/11/09 07:34:53;;;;;;;8.35;2.28;;;11.20;99.90;;;;;;4979334;28;20046;-78
2022/11/09 07:37:18;;;;;;;9.55;1.90;;;11.20;99.90;;;;;;4978822;28;20045;-76
2022/11/09 07:39:44;;;;;;;12.50;2.42;;;11.20;99.90;;;;;;4995311;28;20046;-76
2022/11/09 07:42:09;;;;;;;10.65;2.05;;;11.20;99.90;;;;;;4995014;28;20038;-77
2022/11/09 07:44:34;;;;;;;11.88;2.08;;;11.30;99.90;;;;;;4995247;28;20419;-77
2022/11/09 07:47:00;;;;;;;8.65;1.98;;;11.30;99.90;;;;;;4994887;28;20045;-77
2022/11/09 07:49:25;;;;;;;7.97;1.73;;;11.30;99.90;;;;;;4994489;28;20042;-77
2022/11/09 07:51:51;;;;;;;11.43;2.15;;;11.30;99.90;;;;;;4995031;28;20053;-77
2022/11/09 07:54:16;;;;;;;4.93;1.67;;;11.30;99.90;;;;;;4994800;28;20049;-77
2022/11/09 07:56:42;;;;;;;9.13;1.83;;;11.30;99.90;;;;;;4995126;28;20034;-77
2022/11/09 07:59:07;;;;;;;12.85;2.30;;;11.30;99.90;;;;;;4994913;28;20037;-77
2022/11/09 08:01:33;;;;;;;14.50;2.95;;;11.30;99.90;;;;;;4994783;28;20120;-77
2022/11/09 08:03:59;;;;;;;8.75;1.73;;;11.40;99.90;;;;;;4994873;28;20045;-76
2022/11/09 08:06:26;;;;;;;8.10;1.92;;;11.40;99.90;;;;;;4978604;28;20034;-78
2022/11/09 08:08:56;;;;;;;9.15;1.95;;;11.40;99.90;;;;;;4994419;28;20042;-77
2022/11/09 08:11:22;;;;;;;9.27;1.90;;;11.40;99.90;;;;;;4977577;28;20042;-77
2022/11/09 08:13:48;;;;;;;12.32;2.42;;;11.50;99.90;;;;;;4994581;28;20069;-77
2022/11/09 08:16:13;;;;;;;8.98;2.13;;;11.50;99.90;;;;;;4994469;28;20034;-77
2022/11/09 08:18:39;;;;;;;10.27;2.38;;;11.50;99.90;;;;;;4994214;28;20029;-76
2022/11/09 08:21:05;;;;;;;10.98;2.28;;;11.60;99.90;;;;;;4994835;28;20132;-76
2022/11/09 08:23:30;;;;;;;8.85;1.60;;;11.60;99.90;;;;;;4994365;28;20034;-77
2022/11/09 08:25:56;;;;;;;10.45;2.63;;;11.60;99.90;;;;;;4993602;28;20522;-77
2022/11/09 08:28:22;;;;;;;8.07;1.90;;;11.70;99.90;;;;;;4994062;28;20093;-77
2022/11/09 08:30:56;;;;;;;8.85;1.88;;;11.70;99.90;;;;;;4994414;28;20037;-77
2022/11/09 08:33:22;;;;;;;7.78;1.95;;;11.70;99.90;;;;;;4994311;28;20100;-77
2022/11/09 08:35:48;;;;;;;11.07;2.42;;;11.80;99.90;;;;;;4994407;28;20499;-77
2022/11/09 08:38:13;;;;;;;8.68;2.25;;;11.80;99.90;;;;;;4994112;28;20073;-77
2022/11/09 08:40:39;;;;;;;9.82;2.55;;;11.80;99.90;;;;;;4994155;28;20121;-77
2022/11/09 08:43:07;;;;;;;8.73;2.05;;;11.80;99.90;;;;;;4994245;28;20038;-77
2022/11/09 08:45:36;;;;;;;7.72;2.13;;;11.90;99.90;;;;;;4993869;28;20061;-77
2022/11/09 08:48:02;;;;;;;11.20;1.90;;;11.90;99.90;;;;;;4993782;28;20518;-76
2022/11/09 08:50:29;;;;;;;9.70;2.28;;;12.00;99.90;;;;;;4994008;28;20041;-77
2022/11/09 08:52:55;;;;;;;9.63;2.00;;;12.00;99.90;;;;;;4994025;28;20049;-77
2022/11/09 08:55:21;;;;;;;12.77;2.08;;;12.10;99.90;;;;;;4977881;28;20461;-77
2022/11/09 08:57:47;;;;;;;9.77;2.20;;;12.10;99.90;;;;;;4977471;28;20100;-77
2022/11/09 09:00:14;;;;;;;9.43;2.42;;;12.20;99.90;;;;;;4977625;28;20046;-78
2022/11/09 09:02:40;;;;;;;8.20;2.00;;;12.20;99.90;;;;;;4982706;28;20567;-77
2022/11/09 09:05:06;;;;;;;11.32;2.30;;;12.30;99.90;;;;;;4977051;28;20114;-77
2022/11/09 09:07:31;;;;;;;8.52;2.30;;;12.30;99.90;;;;;;4975112;28;20041;-78
2022/11/09 09:09:57;;;;;;;8.02;2.28;;;12.40;99.90;;;;;;4989011;28;20508;-77
2022/11/09 09:12:22;;;;;;;8.48;2.35;;;12.40;99.90;;;;;;4973060;28;20120;-77
2022/11/09 09:14:49;;;;;;;15.02;2.90;;;12.40;99.90;;;;;;4988840;28;20080;-76
2022/11/09 09:17:15;;;;;;;10.30;2.28;;;12.50;99.90;;;;;;4974459;28;20523;-77
2022/11/09 09:19:40;;;;;;;10.82;2.28;;;12.50;99.90;;;;;;4975189;28;20034;-76
2022/11/09 09:22:06;;;;;;;8.48;2.53;;;12.50;99.90;;;;;;4976746;28;20038;-76
2022/11/09 09:24:31;;;;;;;10.50;2.50;;;12.60;99.90;;;;;;4973499;28;20572;-76
2022/11/09 09:26:57;;;;;;;10.13;2.35;;;12.60;99.90;;;;;;4972333;28;20505;-76
2022/11/09 09:29:22;;;;;;;8.43;2.15;;;12.60;99.90;;;;;;4982427;28;20085;-77
2022/11/09 09:31:48;;;;;;;7.82;2.20;;;12.70;99.90;;;;;;4991535;28;20072;-77
2022/11/09 09:34:13;;;;;;;15.70;2.50;;;12.70;99.90;;;;;;4992364;28;20046;-77
2022/11/09 09:36:39;;;;;;;11.65;2.50;;;12.80;99.90;;;;;;4994262;28;20087;-77
2022/11/09 09:39:05;;;;;;;13.02;2.33;;;12.80;99.90;;;;;;4997052;28;20034;-77
2022/11/09 09:41:36;;;;;;;8.40;2.30;;;12.90;99.90;;;;;;4997309;28;20461;-77
2022/11/09 09:44:31;;;;;;;14.63;2.55;;;12.90;99.90;;;;;;4997163;28;20488;-77
2022/11/09 09:47:18;;;;;;;9.95;2.20;;;13.00;99.90;;;;;;4991964;28;20053;-76
2022/11/09 09:49:53;;;;;;;12.70;2.80;;;13.00;99.90;;;;;;4997058;28;20046;-77
2022/11/09 09:52:36;;;;;;;10.38;2.10;;;13.10;99.90;;;;;;4980322;28;20052;-77
2022/11/09 09:55:18;;;;;;;11.93;3.30;;;13.20;99.90;;;;;;4997223;28;20048;-76
2022/11/09 09:57:51;;;;;;;9.98;2.42;;;13.20;99.90;;;;;;4996799;28;20125;-77
2022/11/09 10:00:23;;;;;;;11.38;3.13;;;13.20;99.90;;;;;;4980911;28;20046;-77
2022/11/09 10:02:50;;;;;;;10.68;2.30;;;13.30;99.90;;;;;;4996853;28;20689;-77
2022/11/09 10:05:18;;;;;;;10.85;2.45;;;13.20;99.90;;;;;;4997287;28;20073;-77
2022/11/09 10:08:09;;;;;;;9.80;2.28;;;13.30;99.90;;;;;;4980188;28;20084;-77
2022/11/09 10:10:37;;;;;;;10.05;2.55;;;13.30;99.90;;;;;;4997016;28;20080;-77
2022/11/09 10:13:24;;;;;;;12.57;3.10;;;13.30;99.90;;;;;;4996008;28;20065;-77
2022/11/09 10:16:04;;;;;;;13.48;3.10;;;13.30;99.90;;;;;;4980557;28;20403;-76
2022/11/09 10:18:48;;;;;;;8.52;2.58;;;13.30;99.90;;;;;;4996487;28;20042;-77
2022/11/09 10:21:40;;;;;;;12.07;3.10;;;13.30;99.90;;;;;;4996365;28;20228;-77
2022/11/09 10:24:34;;;;;;;10.40;2.85;;;13.40;99.90;;;;;;4996924;28;20062;-77
2022/11/09 10:27:01;;;;;;;10.32;3.13;;;13.50;99.90;;;;;;4996261;28;20042;-76
2022/11/09 10:29:34;;;;;;;11.98;3.17;;;13.50;99.90;;;;;;4996258;28;20034;-77
2022/11/09 10:32:17;;;;;;;9.40;2.97;;;13.50;99.90;;;;;;4996968;28;20553;-76
2022/11/09 10:34:45;;;;;;;12.32;3.20;;;13.40;99.90;;;;;;4996434;28;20053;-77
2022/11/09 10:37:31;;;;;;;8.48;3.33;;;13.40;99.90;;;;;;4996480;28;20042;-77
2022/11/09 10:40:18;;;;;;;10.13;2.97;;;13.40;99.90;;;;;;4996431;28;20061;-77
2022/11/09 10:42:54;;;;;;;9.40;3.45;;;13.40;99.90;;;;;;4996212;28;20046;-77
2022/11/09 10:45:36;;;;;;;7.85;2.83;;;13.40;99.90;;;;;;4996592;28;20042;-77
2022/11/09 10:48:02;;;;;;;11.55;3.17;;;13.40;99.90;;;;;;4995191;28;20034;-76
2022/11/09 10:50:45;;;;;;;10.07;3.17;;;13.40;99.90;;;;;;4996174;28;20065;-76
2022/11/09 10:53:24;;;;;;;14.23;3.55;;;13.30;99.90;;;;;;4979986;28;20034;-77
2022/11/09 10:56:03;;;;;;;11.45;2.78;;;13.30;99.90;;;;;;4994201;28;20042;-77
2022/11/09 10:58:34;;;;;;;12.35;3.13;;;13.30;99.90;;;;;;4978376;28;20038;-77
2022/11/09 11:01:12;;;;;;;12.77;3.35;;;13.40;99.90;;;;;;4975831;28;20034;-76
2022/11/09 11:03:38;;;;;;;10.38;3.40;;;13.40;99.90;;;;;;4959766;28;20039;-76
2022/11/09 11:06:22;;;;;;;10.18;3.38;;;13.40;99.90;;;;;;4995964;28;20049;-77
2022/11/09 11:08:57;;;;;;;10.57;3.30;;;13.50;99.90;;;;;;4995869;28;20037;-77
2022/11/09 11:11:23;;;;;;;10.30;2.97;;;13.50;99.90;;;;;;4995906;28;20511;-76
2022/11/09 11:14:08;;;;;;;7.68;2.33;;;13.50;99.90;;;;;;4995922;28;20535;-77
2022/11/09 11:16:35;;;;;;;9.73;3.30;;;13.50;99.90;;;;;;4995971;28;20045;-76
2022/11/09 11:19:02;;;;;;;7.05;2.83;;;13.50;99.90;;;;;;4995556;28;20042;-78
2022/11/09 11:21:27;;;;;;;10.23;2.95;;;13.50;99.90;;;;;;4995753;28;20042;-77
2022/11/09 11:24:14;;;;;;;10.02;2.92;;;13.50;99.90;;;;;;4995584;28;20041;-77
2022/11/09 11:26:55;;;;;;;9.18;2.80;;;13.50;99.90;;;;;;4995940;28;20500;-77
2022/11/09 11:29:42;;;;;;;11.05;3.53;;;13.50;99.90;;;;;;4995263;28;20042;-77
2022/11/09 11:32:14;;;;;;;10.45;3.15;;;13.50;99.90;;;;;;4995559;28;20045;-77
2022/11/09 11:34:40;;;;;;;8.10;3.05;;;13.40;99.90;;;;;;4979295;28;20049;-77
2022/11/09 11:37:34;;;;;;;7.22;2.58;;;13.40;99.90;;;;;;4995484;28;20045;-77
2022/11/09 11:40:09;;;;;;;6.43;2.90;;;13.40;99.90;;;;;;4994319;28;20408;-77
2022/11/09 11:42:56;;;;;;;9.60;2.80;;;13.40;99.90;;;;;;4992307;28;20088;-76
2022/11/09 11:45:31;;;;;;;9.45;3.40;;;13.50;99.90;;;;;;4992920;28;20049;-78
2022/11/09 11:48:22;;;;;;;10.70;3.03;;;13.50;99.90;;;;;;4993532;28;20407;-77
2022/11/09 11:51:26;;;;;;;8.35;2.92;;;13.50;99.90;;;;;;4994145;28;20526;-77
2022/11/09 11:54:05;;;;;;;11.88;2.95;;;13.50;99.90;;;;;;4954584;28;20077;-78
2022/11/09 11:56:41;;;;;;;12.20;3.30;;;13.50;99.90;;;;;;4990094;28;20049;-77
2022/11/09 11:59:55;;;;;;;8.50;2.88;;;13.50;99.90;;;;;;4994539;28;20074;-77
2022/11/09 12:02:27;;;;;;;9.23;3.00;;;13.60;99.90;;;;;;4975453;28;20054;-77
2022/11/09 12:05:29;;;;;;;10.70;3.60;;;13.70;99.90;;;;;;4978840;28;20522;-77
2022/11/09 12:08:11;;;;;;;11.83;3.50;;;13.70;99.90;;;;;;4994885;28;20049;-77
2022/11/09 12:11:09;;;;;;;12.20;3.72;;;13.60;99.90;;;;;;4994739;28;20364;-77
2022/11/09 12:13:46;;;;;;;18.75;4.00;;;13.60;99.90;;;;;;4994814;28;20120;-78
2022/11/09 12:16:26;;;;;;;8.70;3.10;;;13.50;99.90;;;;;;4995001;28;20518;-77
2022/11/09 12:19:29;;;;;;;9.70;3.63;;;13.50;99.90;;;;;;4994346;28;20046;-77
2022/11/09 12:22:08;;;;;;;11.57;3.90;;;13.50;99.90;;;;;;4986669;28;20108;-77
2022/11/09 12:24:56;;;;;;;9.45;3.17;;;13.50;99.90;;;;;;4995098;28;20045;-76
2022/11/09 12:27:43;;;;;;;8.10;3.22;;;13.50;99.90;;;;;;4994608;28;20076;-76
2022/11/09 12:30:09;;;;;;;11.25;3.97;;;13.60;99.90;;;;;;4994457;28;20065;-77
2022/11/09 12:32:54;;;;;;;10.82;3.53;;;13.60;99.90;;;;;;4978624;28;20069;-77
2022/11/09 12:35:53;;;;;;;10.05;3.33;;;13.60;99.90;;;;;;4994753;28;20474;-77
2022/11/09 12:38:35;;;;;;;12.32;3.40;;;13.70;99.90;;;;;;4994217;28;20561;-76
2022/11/09 12:41:19;;;;;;;10.15;3.15;;;13.70;99.90;;;;;;4994440;28;20048;-77
2022/11/09 12:44:14;;;;;;;8.85;3.35;;;13.80;99.90;;;;;;4994192;28;20103;-77
2022/11/09 12:46:47;;;;;;;11.02;3.35;;;13.80;99.90;;;;;;4978413;28;20395;-77
2022/11/09 12:49:34;;;;;;;;;;;13.90;99.90;;;;;;4994277;28;20490;-77
2022/11/09 12:51:59;;;;;;;8.90;3.40;;;13.90;99.90;;;;;;4994481;28;20299;-77
2022/11/09 12:54:26;;;;;;;9.20;3.00;;;13.80;99.90;;;;;;4994129;28;20029;-77
2022/11/09 12:56:58;;;;;;;13.63;3.53;;;13.70;99.90;;;;;;4993733;28;20048;-77
2022/11/09 12:59:27;;;;;;;8.68;2.70;;;13.60;99.90;;;;;;4993940;28;20034;-77
2022/11/09 13:01:55;;;;;;;7.57;2.70;;;13.50;99.90;;;;;;4993874;28;20042;-77